Time;durP1;ratioP1;P1;durP2;ratioP2;P2;SDS_P1;SDS_P2;PMS_P1;PMS_P2;Temp;Humidity;BMP_temperature;BMP_pressure;BME280_temperature;BME280_humidity;BME280_pressure;Samples;Min_cycle;Max_cycle;Signal;HPM_P1;HPM_P2
2021/12/08 12:59:53;;;;;;;6.90;2.25;;;;;;;;;;5090933;27;20557;-78
2021/12/08 13:02:30;;;;;;;5.70;2.35;;;;;;;;;;5089646;28;20171;-79
2021/12/08 13:05:08;;;;;;;8.13;2.05;;;;;;;;;;5089555;28;20181;-79
2021/12/08 13:07:39;;;;;;;3.00;2.05;;;;;;;;;;5090777;28;20191;-79
2021/12/08 13:10:10;;;;;;;16.88;2.70;;;;;;;;;;5090759;28;20164;-79
2021/12/08 13:12:36;;;;;;;7.95;2.55;;;;;;;;;;5090648;28;20645;-79
2021/12/08 13:15:07;;;;;;;5.55;2.10;;;;;;;;;;5090587;28;20203;-79
2021/12/08 13:17:34;;;;;;;3.10;2.30;;;;;;;;;;5090415;28;20659;-78
2021/12/08 13:20:01;;;;;;;5.57;2.15;;;;;;;;;;5090588;28;20211;-78
2021/12/08 13:22:47;;;;;;;5.05;2.65;;;;;;;;;;5090534;28;20192;-78
2021/12/08 13:25:23;;;;;;;7.45;2.28;;;;;;;;;;5090517;28;20163;-78
2021/12/08 13:27:52;;;;;;;6.28;2.13;;;;;;;;;;5090454;28;20203;-78
2021/12/08 13:30:19;;;;;;;4.95;2.13;;;;;;;;;;5089108;28;20240;-79
2021/12/08 13:32:46;;;;;;;5.20;2.20;;;;;;;;;;5090264;28;20176;-78
2021/12/08 13:35:13;;;;;;;5.07;2.38;;;;;;;;;;5090287;28;20225;-79
2021/12/08 13:37:55;;;;;;;6.30;2.45;;;;;;;;;;5090180;28;20527;-79
2021/12/08 13:40:21;;;;;;;6.20;2.65;;;;;;;;;;5088817;28;20214;-79
2021/12/08 13:42:48;;;;;;;7.40;2.30;;;;;;;;;;5090075;28;20532;-79
2021/12/08 13:45:16;;;;;;;3.22;2.05;;;;;;;;;;5088812;28;20633;-79
2021/12/08 13:47:43;;;;;;;4.20;2.10;;;;;;;;;;5090002;28;20521;-79
2021/12/08 13:50:12;;;;;;;7.57;2.42;;;;;;;;;;5089983;28;20171;-79
2021/12/08 13:53:00;;;;;;;5.05;1.83;;;;;;;;;;5089880;28;20167;-79
2021/12/08 13:55:27;;;;;;;8.35;2.60;;;;;;;;;;5089934;28;20160;-79
2021/12/08 13:58:03;;;;;;;10.13;3.03;;;;;;;;;;5089601;28;20215;-79
2021/12/08 14:00:34;;;;;;;2.80;2.20;;;;;;;;;;5089815;28;20171;-79
2021/12/08 14:03:06;;;;;;;4.72;2.45;;;;;;;;;;5090163;28;20566;-79
2021/12/08 14:05:37;;;;;;;4.68;2.15;;;;;;;;;;5089505;28;20171;-79
2021/12/08 14:08:17;;;;;;;9.25;2.63;;;;;;;;;;5089670;28;20176;-79
2021/12/08 14:10:47;;;;;;;7.32;2.38;;;;;;;;;;5077695;28;20190;-79
2021/12/08 14:13:14;;;;;;;6.00;2.55;;;;;;;;;;5074746;28;20172;-79
2021/12/08 14:15:40;;;;;;;7.47;2.42;;;;;;;;;;5075934;28;20179;-79
2021/12/08 14:18:21;;;;;;;7.15;2.97;;;;;;;;;;5074615;28;20196;-79
2021/12/08 14:20:52;;;;;;;8.07;2.35;;;;;;;;;;5075924;28;20164;-79
2021/12/08 14:23:19;;;;;;;3.15;2.22;;;;;;;;;;5075869;28;20245;-79
2021/12/08 14:25:47;;;;;;;7.07;2.72;;;;;;;;;;5075848;28;20171;-79
2021/12/08 14:28:27;;;;;;;4.97;2.65;;;;;;;;;;5074498;28;20172;-79
2021/12/08 14:30:54;;;;;;;4.63;2.17;;;;;;;;;;5075746;28;20172;-79
2021/12/08 14:33:24;;;;;;;8.32;1.95;;;;;;;;;;5075680;28;20721;-79
2021/12/08 15:03:52;;;;;;;6.25;3.75;;;;;;;;;;5090927;28;20563;-76
2021/12/08 15:06:22;;;;;;;11.20;3.05;;;;;;;;;;5090928;28;20229;-75
2021/12/08 15:08:49;;;;;;;7.82;2.65;;;;;;;;;;5090844;28;20175;-74
2021/12/08 15:11:22;;;;;;;7.25;3.30;;;;;;;;;;5090774;28;20187;-73
